createdAt,value
2018-03-03T14:35:47.789Z,23.10
2018-03-03T14:38:16.861Z,22.90
2018-03-03T14:40:45.957Z,23.00
2018-03-03T14:43:15.046Z,23.10
2018-03-03T14:45:44.918Z,23.40
2018-03-03T14:48:14.022Z,23.40
2018-03-03T14:50:43.950Z,23.20
2018-03-03T14:53:13.030Z,23.30
2018-03-03T14:55:42.945Z,23.20
2018-03-03T14:58:12.793Z,23.40
2018-03-03T15:00:41.896Z,23.30
2018-03-03T15:03:11.758Z,23.60
2018-03-03T15:05:40.892Z,23.50
2018-03-03T15:08:09.972Z,23.40
2018-03-03T15:10:39.062Z,23.60
2018-03-03T15:13:08.142Z,23.70
2018-03-03T15:15:37.245Z,23.70
2018-03-03T15:18:06.326Z,23.70
2018-03-03T15:20:35.469Z,23.70
2018-03-03T15:23:04.541Z,23.70
2018-03-03T15:25:33.626Z,23.80
2018-03-03T15:28:02.710Z,23.90
2018-03-03T15:30:31.820Z,24.00
2018-03-03T15:33:00.960Z,24.20
2018-03-03T15:35:30.033Z,24.00
2018-03-03T15:37:59.174Z,24.00
2018-03-03T15:40:28.253Z,24.10
2018-03-03T15:42:57.418Z,24.20
2018-03-03T15:45:26.490Z,24.30
2018-03-03T15:47:56.351Z,24.40
2018-03-03T15:50:25.422Z,24.40
2018-03-03T15:52:55.297Z,24.80
2018-03-03T15:55:24.381Z,24.70
2018-03-03T15:57:53.466Z,24.70
2018-03-03T16:00:22.552Z,24.90
2018-03-03T16:02:52.389Z,25.20
2018-03-03T16:05:21.514Z,25.30
2018-03-03T16:07:50.613Z,25.20
2018-03-03T16:10:20.482Z,25.20
2018-03-03T16:12:49.675Z,25.20
2018-03-03T16:15:19.759Z,25.30
2018-03-03T16:17:48.837Z,25.20
2018-03-03T16:20:17.967Z,25.60
2018-03-03T16:22:47.047Z,25.60
2018-03-03T16:25:16.917Z,26.00
2018-03-03T16:27:46.020Z,26.00
2018-03-03T16:30:15.114Z,26.10
2018-03-03T16:32:44.230Z,26.10
2018-03-03T16:35:13.305Z,26.30
2018-03-03T16:37:43.194Z,26.60
2018-03-03T16:40:12.277Z,26.60
2018-03-03T16:42:41.358Z,26.70
2018-03-03T16:45:11.275Z,26.80
2018-03-03T16:47:40.354Z,26.80
2018-03-03T16:50:09.438Z,26.90
2018-03-03T16:52:38.526Z,26.90
2018-03-03T16:55:08.470Z,27.10
2018-03-03T16:57:37.683Z,27.20
2018-03-03T17:00:06.758Z,27.30
2018-03-03T17:02:35.837Z,27.30
2018-03-03T17:05:05.026Z,27.50
2018-03-03T17:07:34.178Z,27.50
2018-03-03T17:10:03.293Z,27.70
2018-03-03T17:12:32.370Z,27.60
2018-03-03T17:15:01.454Z,27.90
2018-03-03T17:17:30.569Z,28.20
2018-03-03T17:19:59.649Z,28.20
2018-03-03T17:22:30.161Z,28.10
2018-03-03T17:24:59.262Z,28.10
2018-03-03T17:27:28.349Z,28.10
2018-03-03T17:29:57.425Z,28.00
2018-03-03T17:32:27.273Z,28.40
2018-03-03T17:34:56.073Z,28.40
2018-03-03T17:37:25.150Z,28.30
2018-03-03T17:39:55.005Z,28.80
2018-03-03T17:42:24.093Z,28.70
2018-03-03T17:44:54.032Z,28.90
2018-03-03T17:47:23.887Z,29.00
2018-03-03T17:49:53.011Z,29.00
2018-03-03T17:52:22.162Z,29.20
2018-03-03T17:54:51.302Z,29.20
2018-03-03T17:57:21.145Z,29.70
2018-03-03T17:59:50.230Z,29.70
2018-03-03T18:02:20.097Z,29.90
2018-03-03T18:04:49.206Z,29.90
2018-03-03T18:07:18.285Z,30.00
2018-03-03T18:09:48.135Z,29.90
2018-03-03T18:12:17.246Z,29.80
2018-03-03T18:14:46.331Z,29.90
2018-03-03T18:17:16.178Z,29.80
2018-03-03T18:19:45.271Z,29.90
2018-03-03T18:22:15.117Z,29.90
2018-03-03T18:24:44.253Z,29.90
2018-03-03T18:27:13.335Z,30.00
2018-03-03T18:29:42.460Z,30.00
2018-03-03T18:32:11.591Z,30.00
2018-03-03T18:34:40.658Z,30.60
2018-03-03T18:37:09.758Z,30.00
2018-03-03T18:39:39.669Z,30.40
2018-03-03T18:42:08.785Z,30.30
2018-03-03T18:44:37.918Z,30.00
2018-03-03T18:47:07.751Z,30.40
2018-03-03T18:49:36.837Z,30.30
2018-03-03T18:52:06.749Z,30.80
2018-03-03T18:54:36.602Z,31.20
2018-03-03T18:57:06.454Z,31.20
2018-03-03T18:59:35.552Z,31.20
2018-03-03T19:02:04.638Z,31.20
2018-03-03T19:04:34.543Z,31.10
2018-03-03T19:07:04.401Z,31.20
2018-03-03T19:09:34.254Z,31.10
2018-03-03T19:12:03.342Z,31.10
2018-03-03T19:14:33.198Z,31.10
2018-03-03T19:17:02.334Z,31.10
2018-03-03T19:19:31.413Z,31.10
2018-03-03T19:22:00.495Z,31.10
2018-03-03T19:24:29.593Z,31.00
2018-03-03T19:26:58.679Z,31.00
2018-03-03T19:29:27.767Z,31.40
2018-03-03T19:31:56.859Z,31.60
2018-03-03T19:34:25.993Z,31.40
2018-03-03T19:36:55.135Z,31.50
2018-03-03T19:39:24.453Z,31.60
2018-03-03T19:41:53.539Z,31.90
2018-03-03T19:44:22.630Z,31.90
2018-03-03T19:46:51.722Z,31.80
2018-03-03T19:49:20.806Z,32.00
2018-03-03T19:51:49.899Z,32.00
2018-03-03T19:54:19.007Z,32.30
2018-03-03T19:56:48.132Z,32.40
2018-03-03T19:59:17.245Z,32.50
2018-03-03T20:01:47.838Z,32.20
2018-03-03T20:04:16.982Z,32.20
2018-03-03T20:06:46.064Z,32.10
2018-03-03T20:09:15.156Z,31.90
2018-03-03T20:11:44.293Z,31.70
2018-03-03T20:14:13.422Z,32.10
2018-03-03T20:16:42.526Z,32.10
2018-03-03T20:19:11.609Z,32.40
2018-03-03T20:21:40.774Z,32.30
2018-03-03T20:24:09.873Z,32.60
2018-03-03T20:26:39.168Z,32.60
2018-03-03T20:29:08.258Z,32.90
2018-03-03T20:31:37.353Z,32.90
2018-03-03T20:34:06.481Z,33.00
2018-03-03T20:36:35.607Z,33.00
2018-03-03T20:39:04.747Z,32.90
2018-03-03T20:41:33.838Z,32.90
2018-03-03T20:44:02.972Z,33.00
2018-03-03T20:46:32.061Z,32.90
2018-03-03T20:49:01.187Z,33.30
2018-03-03T20:51:30.282Z,33.30
2018-03-03T20:53:59.441Z,33.40
2018-03-03T20:56:29.293Z,33.50
2018-03-03T20:58:58.381Z,33.40
2018-03-03T21:01:27.513Z,33.40
2018-03-03T21:03:56.602Z,33.20
2018-03-03T21:06:25.700Z,33.30
2018-03-03T21:08:54.791Z,33.40
2018-03-03T21:11:27.961Z,33.40
2018-03-03T21:13:57.075Z,33.30
2018-03-03T21:16:26.175Z,33.40
2018-03-03T21:18:55.802Z,33.80
2018-03-03T21:21:24.889Z,33.90
2018-03-03T21:23:54.010Z,33.80
2018-03-03T21:26:23.095Z,33.80
2018-03-03T21:28:52.946Z,34.10
2018-03-03T21:31:22.077Z,34.10
2018-03-03T21:33:51.162Z,34.20
2018-03-03T21:36:20.248Z,34.70
2018-03-03T21:38:50.098Z,34.40
2018-03-03T21:41:19.201Z,34.40
2018-03-03T21:43:48.353Z,34.30
2018-03-03T21:46:17.498Z,34.80
2018-03-03T21:48:46.874Z,34.00
2018-03-03T21:51:15.986Z,34.40
2018-03-03T21:53:45.080Z,33.80
2018-03-03T21:56:14.174Z,33.80
2018-03-03T21:58:43.433Z,33.60
2018-03-03T22:01:12.518Z,33.80
2018-03-03T22:03:41.622Z,33.80
2018-03-03T23:28:09.725Z,34.20
2018-03-03T23:30:38.809Z,34.30
2018-03-03T23:33:08.018Z,34.30
2018-03-03T23:35:37.109Z,34.30
2018-03-03T23:38:06.205Z,34.60
2018-03-03T23:40:35.290Z,34.60
2018-03-03T23:43:04.377Z,34.40
2018-03-03T23:45:34.229Z,35.00
2018-03-03T23:48:03.310Z,35.00
2018-03-03T23:50:33.177Z,35.20
2018-03-03T23:53:02.262Z,35.20
2018-03-03T23:55:31.405Z,35.20
2018-03-03T23:58:00.499Z,35.40
